Time;durP1;ratioP1;P1;durP2;ratioP2;P2;SDS_P1;SDS_P2;PMS_P1;PMS_P2;Temp;Humidity;BMP_temperature;BMP_pressure;BME280_temperature;BME280_humidity;BME280_pressure;Samples;Min_cycle;Max_cycle;Signal;HPM_P1;HPM_P2
2021/06/06 00:00:33;;;;;;;0.47;0.47;;;;;;;20.04;72.38;99232.59;5131652;27;41691;-84
2021/06/06 00:03:01;;;;;;;0.63;0.60;;;;;;;20.03;72.39;99240.81;5113226;27;43209;-83
2021/06/06 00:05:32;;;;;;;0.60;0.60;;;;;;;19.95;72.64;99233.47;5114078;27;42874;-84
2021/06/06 00:07:59;;;;;;;0.40;0.40;;;;;;;19.87;72.67;99219.09;5097839;27;38986;-83
2021/06/06 00:10:27;;;;;;;0.40;0.40;;;;;;;19.84;72.56;99224.75;5115219;27;41844;-83
2021/06/06 00:12:54;;;;;;;0.80;0.80;;;;;;;19.73;72.74;99223.94;5097257;27;42817;-86
2021/06/06 00:15:21;;;;;;;0.30;0.30;;;;;;;19.64;72.48;99202.44;5122029;27;41344;-84
2021/06/06 00:17:48;;;;;;;0.30;0.30;;;;;;;19.77;72.84;99234.38;5118860;27;39932;-83
2021/06/06 00:20:17;;;;;;;0.43;0.43;;;;;;;19.72;72.87;99232.97;5134343;27;42367;-84
2021/06/06 00:22:46;;;;;;;0.40;0.40;;;;;;;19.61;72.79;99219.69;5135932;27;42409;-83
2021/06/06 00:25:14;;;;;;;0.50;0.50;;;;;;;19.65;73.00;99234.56;5117483;27;41292;-84
2021/06/06 00:27:41;;;;;;;0.60;0.60;;;;;;;19.54;72.91;99215.88;5115870;27;38842;-84
2021/06/06 00:30:11;;;;;;;0.30;0.30;;;;;;;19.49;73.01;99215.47;5114794;27;41018;-83
2021/06/06 00:32:38;;;;;;;0.57;0.57;;;;;;;19.48;72.86;99219.13;5098708;27;41583;-82
2021/06/06 00:35:07;;;;;;;0.30;0.30;;;;;;;19.52;72.87;99231.31;5098240;27;42137;-85
2021/06/06 00:37:35;;;;;;;0.37;0.37;;;;;;;19.51;73.41;99235.00;5102816;27;38710;-85
2021/06/06 00:40:09;;;;;;;0.57;0.57;;;;;;;19.40;73.34;99224.38;5114634;27;41840;-83
2021/06/06 00:42:39;;;;;;;0.47;0.47;;;;;;;19.37;73.53;99221.97;5130945;27;43495;-83
2021/06/06 00:45:11;;;;;;;0.77;0.77;;;;;;;19.37;73.56;99221.97;5114639;27;42043;-85
2021/06/06 00:47:41;;;;;;;0.50;0.50;;;;;;;19.38;73.19;99226.34;5114783;27;39028;-85
2021/06/06 00:50:16;;;;;;;0.50;0.50;;;;;;;19.25;73.58;99213.22;5114334;27;40691;-84
2021/06/06 00:52:48;;;;;;;0.30;0.30;;;;;;;19.33;73.36;99228.59;5114689;27;42676;-82
2021/06/06 00:55:18;;;;;;;0.30;0.30;;;;;;;19.30;73.43;99231.56;5135354;27;42158;-83
2021/06/06 00:57:46;;;;;;;0.70;0.70;;;;;;;19.14;73.63;99207.13;5135841;27;39596;-87
2021/06/06 01:00:20;;;;;;;0.60;0.60;;;;;;;19.17;73.69;99214.88;5134865;27;40633;-84
2021/06/06 01:02:51;;;;;;;0.70;0.70;;;;;;;19.22;74.09;99229.59;5140151;27;42426;-86
2021/06/06 01:05:27;;;;;;;0.30;0.30;;;;;;;19.21;73.87;99230.59;5113459;27;42699;-84
2021/06/06 01:07:56;;;;;;;0.60;0.60;;;;;;;19.13;73.76;99213.50;5114060;27;41204;-84
2021/06/06 01:10:25;;;;;;;0.20;0.20;;;;;;;19.16;73.79;99219.44;5113187;27;40667;-82
2021/06/06 01:12:58;;;;;;;0.30;0.30;;;;;;;19.16;73.82;99223.97;5104425;27;42015;-83
2021/06/06 01:15:31;;;;;;;0.37;0.37;;;;;;;19.10;73.90;99208.41;5111164;27;42195;-85
2021/06/06 01:18:08;;;;;;;1.33;1.23;;;;;;;19.09;73.93;99204.00;5113457;27;39338;-84
2021/06/06 01:20:46;;;;;;;0.50;0.50;;;;;;;19.18;73.88;99216.59;5113922;27;41026;-83
2021/06/06 01:23:31;;;;;;;0.97;0.70;;;;;;;19.19;74.19;99218.28;5117285;27;41710;-84
2021/06/06 01:26:06;;;;;;;0.27;0.27;;;;;;;19.22;74.65;99226.06;5150424;27;42864;-81
2021/06/06 01:28:40;;;;;;;0.90;0.90;;;;;;;19.22;74.45;99226.06;5150725;27;39949;-84
2021/06/06 01:31:09;;;;;;;0.60;0.60;;;;;;;19.22;74.27;99224.22;5130393;27;40879;-84
2021/06/06 01:33:42;;;;;;;0.83;0.83;;;;;;;19.08;74.47;99194.25;5130599;27;42679;-85
2021/06/06 01:36:13;;;;;;;0.40;0.40;;;;;;;19.13;74.45;99205.44;5112699;27;41201;-85
2021/06/06 01:38:45;;;;;;;0.80;0.80;;;;;;;19.17;74.81;99204.16;5097099;27;39259;-84
2021/06/06 01:41:19;;;;;;;0.70;0.70;;;;;;;19.25;74.64;99221.25;5129132;27;41516;-82
2021/06/06 01:43:53;;;;;;;1.13;1.03;;;;;;;19.24;74.42;99210.66;5096518;27;41759;-85
2021/06/06 01:46:27;;;;;;;0.70;0.70;;;;;;;19.28;74.49;99212.94;5112515;27;42220;-82
2021/06/06 01:48:56;;;;;;;0.40;0.40;;;;;;;19.23;74.57;99211.66;5112906;27;38835;-85
2021/06/06 01:51:27;;;;;;;0.73;0.73;;;;;;;19.27;74.79;99215.75;5122655;27;41633;-83
2021/06/06 01:53:56;;;;;;;0.90;0.90;;;;;;;19.24;74.67;99211.50;5132785;27;41992;-85
2021/06/06 01:56:30;;;;;;;0.57;0.57;;;;;;;19.18;74.89;99200.47;5132421;27;42723;-82
2021/06/06 01:59:03;;;;;;;0.70;0.70;;;;;;;19.17;74.91;99194.25;5112505;27;39777;-85
2021/06/06 02:01:40;;;;;;;0.40;0.33;;;;;;;19.25;74.61;99223.94;5095706;27;42331;-83
2021/06/06 02:04:08;;;;;;;0.30;0.30;;;;;;;19.25;74.83;99213.22;5129727;27;42947;-84
2021/06/06 02:06:40;;;;;;;0.60;0.47;;;;;;;19.25;74.99;99223.94;5095799;27;41298;-83
2021/06/06 02:09:11;;;;;;;0.37;0.37;;;;;;;19.18;74.50;99197.78;5111456;27;39114;-83
2021/06/06 02:11:49;;;;;;;0.80;0.60;;;;;;;19.19;74.78;99196.81;5096176;27;40289;-84
2021/06/06 02:14:21;;;;;;;0.60;0.60;;;;;;;19.31;74.51;99212.63;5111386;27;42764;-85
2021/06/06 02:16:53;;;;;;;0.93;0.93;;;;;;;19.25;74.74;99196.25;5114646;27;42381;-82
2021/06/06 02:19:36;;;;;;;0.93;0.87;;;;;;;19.26;74.73;99195.25;5132852;27;39869;-87
2021/06/06 02:22:16;;;;;;;0.47;0.47;;;;;;;19.25;75.09;99196.25;5115703;27;41065;-83
2021/06/06 02:24:44;;;;;;;0.30;0.30;;;;;;;19.37;75.15;99216.59;5116238;27;42536;-86
2021/06/06 02:27:35;;;;;;;0.30;0.30;;;;;;;19.38;75.21;99216.44;5115665;27;41269;-85
2021/06/06 02:30:15;;;;;;;0.80;0.80;;;;;;;19.30;75.36;99191.28;5123502;27;39787;-83
2021/06/06 02:33:00;;;;;;;0.50;0.50;;;;;;;19.42;75.26;99205.41;5136027;27;41603;-84
2021/06/06 02:35:33;;;;;;;0.50;0.40;;;;;;;19.41;75.50;99201.88;5135556;27;43220;-84
2021/06/06 02:38:07;;;;;;;1.00;0.87;;;;;;;19.43;75.23;99205.25;5132521;27;42950;-84
2021/06/06 02:40:44;;;;;;;0.47;0.47;;;;;;;19.40;75.03;99200.19;5133065;27;39740;-85
2021/06/06 02:43:20;;;;;;;0.77;0.77;;;;;;;19.36;75.27;99194.25;5123162;27;41000;-85
2021/06/06 02:45:50;;;;;;;0.30;0.30;;;;;;;19.44;75.27;99206.97;5135405;27;42312;-83
2021/06/06 02:48:21;;;;;;;0.37;0.37;;;;;;;19.39;75.07;99193.13;5152610;27;42206;-85
2021/06/06 02:50:52;;;;;;;0.30;0.30;;;;;;;19.45;75.02;99208.66;5136210;27;40575;-85
2021/06/06 02:53:24;;;;;;;0.93;0.60;;;;;;;19.42;75.30;99206.25;5115472;27;40855;-84
2021/06/06 02:55:57;;;;;;;1.43;0.87;;;;;;;19.39;75.37;99203.88;5114560;27;42590;-83
2021/06/06 02:58:32;;;;;;;0.73;0.70;;;;;;;19.32;75.61;99203.59;5102853;27;42021;-83
2021/06/06 03:01:04;;;;;;;1.20;0.73;;;;;;;19.41;75.69;99215.28;5115500;27;39865;-84
2021/06/06 03:03:35;;;;;;;0.37;0.37;;;;;;;19.45;75.46;99213.19;5099198;27;41118;-85
2021/06/06 03:06:18;;;;;;;0.63;0.63;;;;;;;19.47;75.29;99217.44;5097445;27;41773;-82
2021/06/06 03:08:47;;;;;;;0.97;0.90;;;;;;;19.47;75.13;99212.06;5115324;27;42280;-84
2021/06/06 03:11:17;;;;;;;1.33;1.23;;;;;;;19.48;75.31;99213.75;5115352;27;39681;-85
2021/06/06 03:13:52;;;;;;;0.80;0.80;;;;;;;19.53;75.79;99221.44;5139220;27;41607;-83
2021/06/06 03:16:20;;;;;;;0.50;0.50;;;;;;;19.49;75.22;99214.63;5135506;27;41734;-84
2021/06/06 03:18:56;;;;;;;0.30;0.30;;;;;;;19.53;75.22;99221.44;5136432;27;41266;-83
2021/06/06 03:21:30;;;;;;;1.07;1.07;;;;;;;19.58;75.23;99219.97;5118276;27;40143;-85
2021/06/06 03:24:02;;;;;;;0.80;0.80;;;;;;;19.48;75.34;99200.31;5115158;27;40790;-83
2021/06/06 03:26:34;;;;;;;1.20;1.20;;;;;;;19.56;75.31;99218.44;5115169;27;43311;-84
2021/06/06 03:29:08;;;;;;;1.57;1.50;;;;;;;19.52;75.68;99220.56;5117095;27;43024;-85
2021/06/06 03:31:43;;;;;;;0.43;0.43;;;;;;;19.50;75.40;99227.94;5098533;27;39330;-82
2021/06/06 03:34:11;;;;;;;2.60;1.53;;;;;;;19.51;75.52;99224.25;5114882;27;40753;-83
2021/06/06 03:36:53;;;;;;;0.70;0.70;;;;;;;19.51;75.59;99221.56;5114670;27;43281;-84
2021/06/06 03:39:41;;;;;;;0.57;0.50;;;;;;;19.44;75.62;99209.66;5114614;27;40881;-83
2021/06/06 03:42:15;;;;;;;0.77;0.77;;;;;;;19.45;76.00;99207.81;5131081;27;40650;-85
2021/06/06 03:44:48;;;;;;;1.10;1.10;;;;;;;19.40;75.62;99193.97;5115173;27;40605;-84
2021/06/06 03:47:19;;;;;;;0.80;0.80;;;;;;;19.48;75.35;99197.63;5131601;27;42686;-82
2021/06/06 03:49:48;;;;;;;0.87;0.87;;;;;;;19.50;75.50;99197.53;5113482;27;42019;-84
2021/06/06 03:52:16;;;;;;;1.03;1.03;;;;;;;19.61;75.35;99219.69;5131954;27;40785;-86
2021/06/06 03:54:44;;;;;;;0.83;0.83;;;;;;;19.61;75.71;99217.03;5096952;27;40675;-84
2021/06/06 03:57:13;;;;;;;0.67;0.67;;;;;;;19.51;75.51;99209.97;5102149;27;42941;-84
2021/06/06 03:59:41;;;;;;;0.97;0.70;;;;;;;19.62;75.73;99221.41;5132511;27;42885;-86
2021/06/06 04:02:10;;;;;;;1.60;1.50;;;;;;;19.62;75.93;99221.41;5113731;27;39896;-82
2021/06/06 04:04:38;;;;;;;0.70;0.70;;;;;;;19.57;75.89;99207.53;5133306;27;42151;-85
2021/06/06 04:07:06;;;;;;;1.40;1.00;;;;;;;19.61;75.77;99218.84;5133737;27;42559;-83
2021/06/06 04:09:35;;;;;;;1.47;1.40;;;;;;;19.58;75.84;99205.69;5117980;27;41237;-85
2021/06/06 04:12:03;;;;;;;1.00;0.83;;;;;;;19.52;76.00;99192.88;5150880;27;40723;-83
2021/06/06 04:14:33;;;;;;;0.77;0.77;;;;;;;19.61;75.85;99216.16;5134094;27;42263;-84
2021/06/06 04:17:03;;;;;;;0.97;0.97;;;;;;;19.59;75.94;99210.94;5133998;27;42699;-82
2021/06/06 04:19:35;;;;;;;1.53;1.43;;;;;;;19.62;76.26;99213.34;5121003;27;42873;-82
2021/06/06 04:22:03;;;;;;;1.63;1.40;;;;;;;19.57;75.98;99201.31;5113152;27;40278;-85
2021/06/06 04:24:31;;;;;;;1.63;1.53;;;;;;;19.65;76.01;99205.00;5132247;27;41592;-83
2021/06/06 04:27:00;;;;;;;1.47;1.37;;;;;;;19.71;75.84;99208.94;5114343;27;41643;-83
2021/06/06 04:29:28;;;;;;;1.17;1.17;;;;;;;19.72;76.01;99206.09;5096345;27;41005;-83
2021/06/06 04:32:04;;;;;;;0.80;0.80;;;;;;;19.74;76.03;99208.66;5130815;27;40170;-84
2021/06/06 04:34:36;;;;;;;1.70;1.37;;;;;;;19.61;75.77;99186.63;5100040;27;40689;-84
2021/06/06 04:37:05;;;;;;;1.07;0.97;;;;;;;19.67;75.73;99189.56;5129872;27;42450;-83
2021/06/06 04:39:33;;;;;;;1.73;1.63;;;;;;;19.51;75.65;99175.91;5113829;27;41403;-83
2021/06/06 04:42:04;;;;;;;1.10;1.10;;;;;;;19.60;75.96;99201.03;5130282;27;40053;-83
2021/06/06 04:44:31;;;;;;;0.83;0.83;;;;;;;19.64;76.53;99207.81;5113632;27;40572;-84
2021/06/06 04:46:59;;;;;;;1.93;1.73;;;;;;;19.63;76.42;99212.34;5096900;27;42245;-83
2021/06/06 04:49:28;;;;;;;1.17;1.17;;;;;;;19.56;76.67;99205.00;5096073;27;41513;-84
2021/06/06 04:51:57;;;;;;;1.67;1.50;;;;;;;19.64;76.99;99207.81;5112879;27;39827;-83
2021/06/06 04:54:32;;;;;;;1.20;1.20;;;;;;;19.56;77.18;99205.84;5126164;27;42241;-83
2021/06/06 04:56:59;;;;;;;2.10;2.03;;;;;;;19.66;77.45;99216.56;5112933;27;42119;-82
2021/06/06 04:59:36;;;;;;;1.57;1.13;;;;;;;19.54;77.20;99186.31;5112238;27;42528;-83
2021/06/06 05:02:05;;;;;;;2.37;1.73;;;;;;;19.72;77.21;99211.47;5112877;27;39826;-82
2021/06/06 05:04:32;;;;;;;1.13;1.13;;;;;;;19.75;77.28;99210.34;5121719;27;41365;-82
2021/06/06 05:07:04;;;;;;;1.40;1.30;;;;;;;19.73;77.22;99196.19;5138563;27;43824;-83
2021/06/06 05:09:32;;;;;;;2.43;1.40;;;;;;;19.76;77.15;99201.28;5150525;27;41690;-84
2021/06/06 05:12:07;;;;;;;1.63;1.53;;;;;;;19.78;77.08;99209.22;5158687;27;41461;-84
2021/06/06 05:14:36;;;;;;;2.30;2.03;;;;;;;19.83;76.97;99213.13;5158099;27;43964;-83
2021/06/06 05:17:04;;;;;;;1.47;1.37;;;;;;;19.78;76.86;99209.22;5141110;27;41899;-85
2021/06/06 05:19:39;;;;;;;0.70;0.70;;;;;;;19.81;77.16;99211.59;5158573;27;43650;-84
2021/06/06 05:22:08;;;;;;;0.90;0.90;;;;;;;19.71;77.14;99199.03;5141642;27;40273;-83
2021/06/06 05:24:38;;;;;;;0.77;0.77;;;;;;;19.77;77.37;99212.88;5133557;27;41647;-82
2021/06/06 05:27:07;;;;;;;1.50;1.40;;;;;;;19.67;77.18;99208.38;5116230;27;41397;-84
2021/06/06 05:29:34;;;;;;;1.17;1.13;;;;;;;19.73;77.44;99218.56;5115771;27;41428;-83
2021/06/06 05:32:06;;;;;;;1.20;1.10;;;;;;;19.70;77.55;99215.28;5117282;27;39961;-83
2021/06/06 05:34:33;;;;;;;1.00;0.93;;;;;;;19.69;78.02;99216.28;5154397;27;41730;-83
2021/06/06 05:37:00;;;;;;;1.13;1.13;;;;;;;19.59;77.88;99205.56;5138521;27;41543;-85
2021/06/06 05:39:29;;;;;;;0.93;0.93;;;;;;;19.60;78.30;99206.41;5144770;27;41426;-83
2021/06/06 05:41:56;;;;;;;1.80;1.20;;;;;;;19.61;78.47;99213.47;5136597;27;38754;-84
2021/06/06 05:44:23;;;;;;;1.33;1.20;;;;;;;19.64;78.83;99222.09;5115802;27;41533;-85
2021/06/06 05:46:50;;;;;;;1.53;1.20;;;;;;;19.68;79.46;99225.34;5116425;27;41672;-85
2021/06/06 05:49:17;;;;;;;1.77;1.67;;;;;;;19.68;79.20;99225.34;5114478;27;42202;-83
2021/06/06 05:51:45;;;;;;;1.13;1.10;;;;;;;19.72;79.05;99229.44;5119727;27;40438;-84
2021/06/06 05:54:14;;;;;;;1.83;1.43;;;;;;;19.66;79.19;99222.78;5131644;27;41443;-83
2021/06/06 05:56:45;;;;;;;2.53;1.97;;;;;;;19.68;79.21;99212.75;5133189;27;41481;-82
2021/06/06 05:59:12;;;;;;;2.73;1.93;;;;;;;19.87;78.95;99229.84;5115515;27;42374;-86
2021/06/06 06:01:39;;;;;;;1.73;1.43;;;;;;;19.84;78.61;99214.00;5153596;27;38885;-85
2021/06/06 06:04:07;;;;;;;2.70;1.97;;;;;;;19.94;78.90;99230.94;5119401;27;40924;-84
2021/06/06 06:06:34;;;;;;;2.57;2.23;;;;;;;19.99;78.42;99234.91;5133859;27;42695;-84
2021/06/06 06:09:02;;;;;;;2.03;1.83;;;;;;;20.02;78.86;99237.28;5117341;27;41152;-85
2021/06/06 06:11:30;;;;;;;1.80;1.70;;;;;;;19.89;78.75;99211.72;5151629;27;40918;-85
2021/06/06 06:14:00;;;;;;;3.00;2.70;;;;;;;20.08;78.43;99244.75;5131936;27;41157;-83
2021/06/06 06:16:31;;;;;;;2.60;1.77;;;;;;;20.18;78.23;99233.97;5115437;27;42091;-83
2021/06/06 06:19:01;;;;;;;2.53;2.07;;;;;;;20.32;78.12;99240.72;5116099;27;41215;-83
2021/06/06 06:21:30;;;;;;;2.27;2.07;;;;;;;20.42;77.84;99247.75;5131090;27;40409;-84
2021/06/06 06:23:57;;;;;;;1.57;1.47;;;;;;;20.59;77.33;99246.13;5132808;27;41800;-83
2021/06/06 06:26:26;;;;;;;3.60;2.77;;;;;;;20.71;76.76;99239.56;5115070;27;41839;-82
2021/06/06 06:29:08;;;;;;;2.70;2.37;;;;;;;20.89;76.33;99244.13;5130964;27;42701;-82
2021/06/06 06:31:53;;;;;;;2.00;1.80;;;;;;;21.05;75.57;99222.75;5115036;27;38962;-83
2021/06/06 06:34:32;;;;;;;2.63;2.07;;;;;;;21.22;75.02;99219.25;5115178;27;40549;-83
2021/06/06 06:37:00;;;;;;;2.13;1.90;;;;;;;21.49;74.71;99229.94;5130595;27;42721;-82
2021/06/06 06:39:27;;;;;;;2.43;1.80;;;;;;;21.90;74.29;99245.53;5150253;27;42342;-83
2021/06/06 06:41:54;;;;;;;2.93;1.90;;;;;;;22.21;73.25;99249.50;5150012;27;39922;-83
2021/06/06 06:44:23;;;;;;;1.90;1.80;;;;;;;22.44;72.03;99249.78;5147968;27;42435;-84
2021/06/06 06:46:52;;;;;;;2.73;2.53;;;;;;;22.49;71.78;99237.50;5114664;27;41541;-83
2021/06/06 06:49:19;;;;;;;1.73;1.63;;;;;;;22.55;71.40;99236.81;5130816;27;41676;-84
2021/06/06 06:51:47;;;;;;;3.47;2.67;;;;;;;22.61;70.92;99239.91;5113411;27;40159;-84
2021/06/06 06:54:14;;;;;;;2.07;1.97;;;;;;;22.74;70.74;99257.34;5115631;27;41338;-85
2021/06/06 06:56:41;;;;;;;2.30;2.10;;;;;;;22.75;70.83;99242.78;5135692;27;42061;-84
2021/06/06 06:59:08;;;;;;;2.77;2.57;;;;;;;22.82;70.43;99248.44;5131155;27;42295;-83
2021/06/06 07:01:37;;;;;;;2.23;2.03;;;;;;;22.92;70.32;99259.94;5098934;27;40040;-83
2021/06/06 07:04:05;;;;;;;1.87;1.77;;;;;;;22.93;69.69;99261.63;5114090;27;41870;-84
2021/06/06 07:06:32;;;;;;;1.97;1.47;;;;;;;22.86;69.57;99244.41;5115586;27;41773;-84
2021/06/06 07:08:59;;;;;;;1.40;1.30;;;;;;;23.14;69.26;99263.88;5098042;27;42094;-84
2021/06/06 07:11:27;;;;;;;2.37;2.17;;;;;;;23.36;69.02;99254.28;5117028;27;38849;-83
2021/06/06 07:13:54;;;;;;;2.60;2.40;;;;;;;23.58;68.53;99262.63;5134318;27;41932;-84
2021/06/06 07:16:22;;;;;;;2.50;2.33;;;;;;;23.71;68.00;99262.13;5153398;27;42623;-84
2021/06/06 07:18:51;;;;;;;2.33;2.20;;;;;;;23.59;66.95;99241.84;5115025;27;42390;-84
2021/06/06 07:21:22;;;;;;;1.73;1.63;;;;;;;23.72;67.13;99269.22;5097562;27;39106;-85
2021/06/06 07:23:50;;;;;;;2.27;1.77;;;;;;;23.69;66.99;99264.13;5115448;27;40944;-84
2021/06/06 07:26:21;;;;;;;1.87;1.73;;;;;;;23.67;66.50;99268.88;5108516;27;41997;-85
2021/06/06 07:28:48;;;;;;;1.80;1.70;;;;;;;23.62;67.01;99263.09;5132391;27;42253;-84
2021/06/06 07:31:16;;;;;;;1.00;1.00;;;;;;;23.59;66.86;99258.91;5115088;27;38928;-83
2021/06/06 07:33:45;;;;;;;1.87;1.77;;;;;;;23.60;66.77;99259.75;5135160;27;41808;-84
2021/06/06 07:36:18;;;;;;;0.87;0.87;;;;;;;23.59;66.79;99255.34;5114908;27;42838;-84
2021/06/06 07:38:47;;;;;;;1.20;1.10;;;;;;;23.65;66.87;99257.38;5118329;27;41253;-85
2021/06/06 07:41:15;;;;;;;1.50;1.40;;;;;;;23.81;66.43;99267.34;5130920;27;38899;-84
2021/06/06 07:43:42;;;;;;;1.30;1.10;;;;;;;23.89;66.35;99268.16;5130869;27;42288;-86
2021/06/06 07:46:10;;;;;;;1.83;1.60;;;;;;;23.95;66.16;99262.09;5114103;27;42102;-84
2021/06/06 07:48:37;;;;;;;1.97;1.50;;;;;;;23.83;65.61;99247.22;5114279;27;40988;-84
2021/06/06 07:51:05;;;;;;;2.60;2.40;;;;;;;23.87;66.03;99262.06;5112077;27;39839;-85
2021/06/06 07:53:34;;;;;;;2.70;2.20;;;;;;;23.80;65.30;99266.50;5113546;27;40738;-83
2021/06/06 07:56:01;;;;;;;2.10;1.20;;;;;;;23.75;65.62;99268.84;5114147;27;41608;-85
2021/06/06 07:58:41;;;;;;;2.57;2.47;;;;;;;23.66;65.77;99253.66;5146641;27;41913;-86
2021/06/06 08:01:09;;;;;;;2.10;2.00;;;;;;;23.61;65.56;99254.16;5113149;27;43112;-84
2021/06/06 08:03:37;;;;;;;1.20;1.10;;;;;;;23.69;65.73;99264.13;5114520;27;40810;-84
2021/06/06 08:06:07;;;;;;;1.57;1.47;;;;;;;23.72;65.59;99263.81;5111996;27;41621;-85
2021/06/06 08:08:35;;;;;;;2.37;2.10;;;;;;;23.73;65.51;99254.69;5149230;27;42243;-84
2021/06/06 08:11:04;;;;;;;2.20;1.60;;;;;;;23.82;65.18;99252.81;5113307;27;39046;-85
2021/06/06 08:13:31;;;;;;;1.70;1.17;;;;;;;23.85;65.01;99258.72;5131888;27;41202;-85
2021/06/06 08:15:59;;;;;;;1.87;1.77;;;;;;;23.89;65.18;99259.22;5133202;27;41983;-84
2021/06/06 08:18:30;;;;;;;1.57;1.47;;;;;;;23.81;65.37;99268.19;5132021;27;41262;-85
2021/06/06 08:21:02;;;;;;;1.07;0.97;;;;;;;23.69;65.17;99264.13;5132818;27;39627;-84
2021/06/06 08:23:29;;;;;;;1.63;1.40;;;;;;;23.60;65.01;99266.00;5113216;27;40830;-85
2021/06/06 08:26:00;;;;;;;2.00;1.60;;;;;;;23.54;65.56;99261.25;5130580;27;43315;-85
2021/06/06 08:28:30;;;;;;;2.10;1.90;;;;;;;23.37;65.66;99227.06;5130390;27;42935;-85
2021/06/06 08:30:59;;;;;;;1.70;1.50;;;;;;;23.51;65.80;99266.16;5127791;27;39869;-85
2021/06/06 08:33:30;;;;;;;1.03;1.00;;;;;;;23.38;66.07;99249.53;5148242;27;42342;-85
2021/06/06 08:36:03;;;;;;;1.33;1.03;;;;;;;23.40;66.04;99264.59;5130239;27;42604;-86
2021/06/06 08:38:31;;;;;;;1.80;0.87;;;;;;;23.42;65.92;99254.47;5130132;27;42578;-85
2021/06/06 08:41:05;;;;;;;2.00;1.90;;;;;;;23.45;66.48;99264.94;5147157;27;41557;-84
2021/06/06 08:43:42;;;;;;;1.20;1.10;;;;;;;23.48;66.50;99256.50;5124572;27;41686;-86
2021/06/06 08:46:12;;;;;;;2.20;2.00;;;;;;;23.53;65.75;99253.31;5112529;27;43076;-86
2021/06/06 08:48:40;;;;;;;1.53;1.43;;;;;;;23.60;65.76;99255.19;5113033;27;41100;-86
2021/06/06 08:51:20;;;;;;;1.67;1.57;;;;;;;23.53;66.05;99247.91;5113329;27;40177;-85
2021/06/06 08:54:03;;;;;;;2.13;1.90;;;;;;;23.49;65.75;99260.06;5096019;27;40714;-86
2021/06/06 08:56:37;;;;;;;1.50;1.40;;;;;;;23.31;65.73;99252.09;5128314;27;42252;-86
2021/06/06 08:59:14;;;;;;;1.73;1.63;;;;;;;23.20;66.13;99274.03;5113376;27;41491;-86
2021/06/06 09:01:46;;;;;;;2.70;2.50;;;;;;;23.08;66.07;99251.88;5113589;27;39716;-86
2021/06/06 09:04:20;;;;;;;1.40;1.30;;;;;;;23.11;65.86;99254.25;5111286;27;40771;-85
2021/06/06 09:06:52;;;;;;;2.63;2.40;;;;;;;23.34;66.17;99259.88;5129207;27;41494;-86
2021/06/06 09:09:27;;;;;;;3.00;2.73;;;;;;;23.34;65.91;99232.84;5127719;27;41817;-86
2021/06/06 09:12:09;;;;;;;2.23;2.00;;;;;;;23.53;65.27;99253.31;5120685;27;20584;-87
2021/06/06 09:14:40;;;;;;;2.47;1.83;;;;;;;23.67;64.69;99268.88;5109951;27;40665;-86
2021/06/06 09:17:14;;;;;;;3.70;1.50;;;;;;;23.58;64.50;99250.97;5113578;27;42168;-86
2021/06/06 09:19:46;;;;;;;1.83;1.30;;;;;;;23.65;64.77;99268.19;5112622;27;41263;-86
2021/06/06 09:22:15;;;;;;;1.57;1.47;;;;;;;23.75;64.34;99274.25;5113144;27;38632;-85
2021/06/06 09:24:47;;;;;;;1.60;1.37;;;;;;;23.74;63.98;99272.56;5135078;27;42268;-86
2021/06/06 09:27:24;;;;;;;1.33;1.23;;;;;;;23.65;64.16;99249.25;5128614;27;42693;-84
2021/06/06 09:30:00;;;;;;;1.37;1.30;;;;;;;23.90;64.32;99261.75;5113192;27;41296;-83
2021/06/06 09:32:30;;;;;;;1.73;1.63;;;;;;;23.86;63.76;99249.56;5126413;27;40838;-85
2021/06/06 09:35:15;;;;;;;1.23;1.03;;;;;;;24.06;63.84;99255.47;5125185;27;40816;-84
2021/06/06 09:37:46;;;;;;;2.33;2.13;;;;;;;24.31;62.81;99267.13;5111249;27;41922;-85
2021/06/06 09:40:34;;;;;;;1.00;0.90;;;;;;;24.62;61.81;99283.41;5111932;27;42233;-83
2021/06/06 09:43:06;;;;;;;1.43;1.33;;;;;;;24.81;60.92;99282.19;5108873;27;38849;-84
2021/06/06 09:45:41;;;;;;;2.23;2.03;;;;;;;24.99;60.66;99280.06;5126407;27;40737;-83
2021/06/06 09:48:16;;;;;;;2.63;2.23;;;;;;;25.21;59.42;99283.88;5108954;27;42213;-85
2021/06/06 09:51:02;;;;;;;2.20;1.77;;;;;;;25.33;59.25;99279.72;5129844;27;41326;-83
2021/06/06 09:53:35;;;;;;;2.27;1.67;;;;;;;25.15;58.94;99252.88;5111782;27;39036;-84
2021/06/06 09:56:07;;;;;;;1.90;1.43;;;;;;;25.28;58.72;99280.25;5107780;27;42169;-84
2021/06/06 09:58:43;;;;;;;2.27;2.07;;;;;;;25.16;59.26;99281.69;5126051;27;43066;-85
2021/06/06 10:01:23;;;;;;;1.87;1.73;;;;;;;24.92;59.44;99270.94;5147328;27;42287;-85
2021/06/06 10:03:57;;;;;;;2.00;1.80;;;;;;;24.90;59.16;99281.09;5112216;27;38838;-84
2021/06/06 10:06:30;;;;;;;2.03;1.93;;;;;;;24.93;59.04;99275.38;5127822;27;40807;-83
2021/06/06 10:09:00;;;;;;;2.40;1.40;;;;;;;24.94;59.19;99277.91;5126292;27;42963;-85
2021/06/06 10:11:34;;;;;;;2.07;1.87;;;;;;;24.98;58.99;99270.25;5111307;27;41587;-85
2021/06/06 10:14:11;;;;;;;2.03;1.83;;;;;;;25.15;58.51;99285.41;5133288;27;39900;-83
2021/06/06 10:16:45;;;;;;;1.57;1.20;;;;;;;25.13;58.58;99276.59;5129462;27;40720;-83
2021/06/06 10:19:21;;;;;;;2.07;1.43;;;;;;;25.06;58.81;99264.81;5111413;27;41582;-82
2021/06/06 10:21:50;;;;;;;1.33;1.23;;;;;;;25.11;58.35;99286.78;5109954;27;41769;-83
2021/06/06 10:24:23;;;;;;;1.90;1.03;;;;;;;24.96;58.27;99289.41;5129033;27;40771;-83
2021/06/06 10:26:55;;;;;;;1.33;1.23;;;;;;;24.72;58.65;99281.38;5111156;27;42004;-83
2021/06/06 10:29:30;;;;;;;2.40;1.47;;;;;;;24.62;59.02;99291.53;5127737;27;43017;-85
2021/06/06 10:32:07;;;;;;;1.40;1.20;;;;;;;24.45;59.77;99276.38;5128358;27;42101;-83
2021/06/06 10:34:40;;;;;;;1.57;1.40;;;;;;;24.31;59.96;99276.09;5111285;27;39376;-84
2021/06/06 10:37:08;;;;;;;2.63;2.10;;;;;;;24.18;59.90;99272.19;5107883;27;43144;-85
2021/06/06 10:39:40;;;;;;;1.37;1.20;;;;;;;24.24;60.33;99274.22;5111644;27;41877;-83
2021/06/06 10:42:12;;;;;;;0.83;0.83;;;;;;;24.43;59.75;99290.09;5104478;27;43207;-84
2021/06/06 10:44:51;;;;;;;1.33;1.03;;;;;;;24.65;59.33;99289.34;5127879;27;38974;-83
2021/06/06 10:47:22;;;;;;;1.20;1.17;;;;;;;24.86;58.18;99296.03;5127877;27;42154;-84
2021/06/06 10:49:58;;;;;;;1.03;1.00;;;;;;;25.19;58.88;99292.16;5126747;27;43222;-84
2021/06/06 10:52:38;;;;;;;1.47;1.37;;;;;;;25.49;58.08;99292.28;5126008;27;40771;-84
2021/06/06 10:55:18;;;;;;;1.40;1.20;;;;;;;25.57;57.21;99294.97;5148558;27;38961;-84
2021/06/06 10:57:48;;;;;;;1.40;1.13;;;;;;;25.73;57.13;99289.44;5142826;27;41429;-84
2021/06/06 11:00:43;;;;;;;1.10;0.90;;;;;;;25.98;56.59;99293.63;5132077;27;41794;-83
2021/06/06 11:03:27;;;;;;;1.67;1.57;;;;;;;26.28;55.30;99296.44;5131143;27;41946;-83
2021/06/06 11:05:58;;;;;;;0.63;0.63;;;;;;;26.40;54.38;99270.50;5133144;27;40207;-83
2021/06/06 11:08:44;;;;;;;1.87;1.67;;;;;;;26.75;53.97;99299.63;5117809;27;41147;-82
2021/06/06 11:11:20;;;;;;;0.60;0.60;;;;;;;26.81;53.67;99296.16;5146970;27;42756;-83
2021/06/06 11:13:51;;;;;;;1.47;1.20;;;;;;;27.00;53.13;99296.63;5149654;27;41633;-85
2021/06/06 11:16:36;;;;;;;1.57;1.20;;;;;;;27.18;52.45;99297.06;5142690;27;41486;-85
2021/06/06 11:19:14;;;;;;;1.17;0.83;;;;;;;27.50;52.26;99295.75;5110656;27;40656;-85
2021/06/06 11:21:50;;;;;;;1.00;1.00;;;;;;;27.83;51.41;99296.06;5112397;27;42438;-84
2021/06/06 11:24:34;;;;;;;1.53;1.43;;;;;;;28.04;50.73;99293.34;5113118;27;41222;-82
2021/06/06 11:27:06;;;;;;;0.87;0.87;;;;;;;28.17;49.87;99293.47;5114905;27;39992;-85
2021/06/06 11:29:47;;;;;;;0.50;0.50;;;;;;;28.41;50.37;99288.63;5127686;27;41761;-83
2021/06/06 11:32:25;;;;;;;1.73;1.10;;;;;;;28.59;49.01;99291.66;5108958;27;44120;-82
2021/06/06 11:35:41;;;;;;;0.93;0.93;;;;;;;28.71;49.12;99287.31;5115377;27;41330;-83
2021/06/06 11:38:35;;;;;;;0.60;0.60;;;;;;;29.00;48.75;99293.56;5103697;28;40189;-82
2021/06/06 11:41:10;;;;;;;0.60;0.60;;;;;;;29.31;47.98;99285.69;5067770;28;43874;-82
2021/06/06 11:43:44;;;;;;;0.57;0.57;;;;;;;28.90;47.90;99264.81;5058690;28;41583;-83
2021/06/06 11:46:21;;;;;;;0.80;0.80;;;;;;;28.53;48.33;99281.56;5087268;28;42170;-81
2021/06/06 11:49:01;;;;;;;0.80;0.70;;;;;;;27.98;49.87;99283.22;5082557;28;39863;-84
2021/06/06 11:51:39;;;;;;;1.20;1.10;;;;;;;27.30;50.38;99260.19;5067913;28;41634;-85
2021/06/06 11:54:26;;;;;;;0.70;0.70;;;;;;;26.94;51.42;99264.78;5075234;27;42640;-83
2021/06/06 11:56:57;;;;;;;0.70;0.70;;;;;;;26.53;52.23;99253.53;5136578;27;41693;-84